createdAt,value
2019-03-11T00:01:22.444Z,101432.43
2019-03-11T00:03:51.827Z,101426.05
2019-03-11T00:06:23.908Z,101424.27
2019-03-11T00:08:53.039Z,101423.30
2019-03-11T00:11:22.358Z,101426.75
2019-03-11T00:13:51.406Z,101430.02
2019-03-11T00:16:20.723Z,101428.80
2019-03-11T00:18:49.784Z,101425.73
2019-03-11T00:21:18.792Z,101413.00
2019-03-11T00:23:48.126Z,101437.50
2019-03-11T00:26:17.625Z,101427.36
2019-03-11T00:28:47.303Z,101435.64
2019-03-11T00:31:16.310Z,101446.71
2019-03-11T00:33:45.372Z,101441.92
2019-03-11T00:36:14.488Z,101449.29
2019-03-11T00:38:43.506Z,101438.55
2019-03-11T00:41:12.550Z,101437.84
2019-03-11T00:43:41.552Z,101435.98
2019-03-11T00:46:10.950Z,101447.22
2019-03-11T00:48:39.992Z,101444.22
2019-03-11T00:51:08.996Z,101463.35
2019-03-11T00:53:38.668Z,101459.81
2019-03-11T00:56:07.716Z,101474.13
2019-03-11T00:58:36.740Z,101480.94
2019-03-11T01:01:06.122Z,101478.44
2019-03-11T01:03:35.190Z,101494.19
2019-03-11T01:06:04.206Z,101480.17
2019-03-11T01:08:33.206Z,101474.31
2019-03-11T01:11:02.309Z,101476.52
2019-03-11T01:13:31.305Z,101474.47
2019-03-11T01:16:00.626Z,101481.53
2019-03-11T01:18:30.397Z,101474.63
2019-03-11T01:20:59.423Z,101480.72
2019-03-11T01:23:28.699Z,101485.80
2019-03-11T01:25:58.099Z,101493.16
2019-03-11T01:28:27.418Z,101503.66
2019-03-11T01:30:56.420Z,101510.08
2019-03-11T01:33:25.430Z,101516.73
2019-03-11T01:35:54.480Z,101501.53
2019-03-11T01:38:23.504Z,101501.19
2019-03-11T01:40:52.524Z,101496.92
2019-03-11T01:43:21.534Z,101494.07
2019-03-11T01:45:50.564Z,101501.92
2019-03-11T01:48:19.959Z,101502.20
2019-03-11T01:50:49.067Z,101506.47
2019-03-11T01:53:18.088Z,101508.27
2019-03-11T01:55:47.104Z,101516.59
2019-03-11T01:58:16.128Z,101512.53
2019-03-11T02:00:45.454Z,101524.85
2019-03-11T02:03:14.450Z,101511.06
2019-03-11T02:05:43.741Z,101514.81
2019-03-11T02:08:12.762Z,101508.41
2019-03-11T02:10:41.789Z,101514.72
2019-03-11T02:13:11.236Z,101506.12
2019-03-11T02:15:40.538Z,101504.08
2019-03-11T02:18:09.943Z,101489.19
2019-03-11T02:20:38.961Z,101486.05
2019-03-11T02:23:08.381Z,101494.52
2019-03-11T02:25:37.362Z,101493.06
2019-03-11T02:28:06.747Z,101491.98
2019-03-11T02:30:35.780Z,101486.31
2019-03-11T02:33:04.872Z,101496.45
2019-03-11T02:35:34.267Z,101504.80
2019-03-11T02:38:03.293Z,101510.22
2019-03-11T02:40:32.308Z,101506.73
2019-03-11T02:43:01.624Z,101517.83
2019-03-11T02:45:30.650Z,101516.88
2019-03-11T02:47:59.698Z,101522.42
2019-03-11T02:50:28.673Z,101509.98
2019-03-11T02:52:57.707Z,101514.23
2019-03-11T02:55:26.739Z,101512.03
2019-03-11T02:57:55.811Z,101512.52
2019-03-11T03:00:24.838Z,101511.70
2019-03-11T03:03:04.089Z,101516.38
2019-03-11T03:05:36.774Z,101515.30
2019-03-11T03:08:05.925Z,101511.44
2019-03-11T03:10:34.974Z,101512.50
2019-03-11T03:13:04.003Z,101519.17
2019-03-11T03:15:33.018Z,101529.91
2019-03-11T03:18:02.060Z,101520.96
2019-03-11T03:20:31.104Z,101525.20
2019-03-11T03:23:00.484Z,101527.98
2019-03-11T03:25:34.601Z,101519.62
2019-03-11T03:28:00.717Z,101515.64
2019-03-11T03:30:30.223Z,101530.96
2019-03-11T03:32:59.272Z,101533.84
2019-03-11T03:35:28.357Z,101533.36
2019-03-11T03:37:57.362Z,101546.51
2019-03-11T03:40:26.706Z,101540.14
2019-03-11T03:42:56.114Z,101547.94
2019-03-11T03:45:27.939Z,101550.59
2019-03-11T03:47:57.785Z,101539.03
2019-03-11T03:50:27.357Z,101544.35
2019-03-11T03:52:56.416Z,101557.29
2019-03-11T03:55:25.400Z,101552.32
2019-03-11T03:57:54.405Z,101554.48
2019-03-11T04:00:23.487Z,101547.72
2019-03-11T04:02:52.521Z,101549.17
2019-03-11T04:05:21.526Z,101546.61
2019-03-11T04:07:50.555Z,101556.18
2019-03-11T04:10:19.593Z,101556.74
2019-03-11T04:12:48.741Z,101570.16
2019-03-11T04:15:18.277Z,101560.48
2019-03-11T04:17:47.972Z,101571.08
2019-03-11T04:20:18.077Z,101590.83
2019-03-11T04:22:47.123Z,101578.78
2019-03-11T04:25:16.214Z,101571.19
2019-03-11T04:27:45.786Z,101579.37
2019-03-11T04:30:19.828Z,101574.46
2019-03-11T04:32:48.846Z,101583.34
2019-03-11T04:35:18.644Z,101578.61
2019-03-11T04:37:47.995Z,101586.94
2019-03-11T04:40:17.618Z,101601.40
2019-03-11T04:42:46.914Z,101589.73
2019-03-11T04:45:15.972Z,101592.41
2019-03-11T04:47:45.015Z,101599.08
2019-03-11T04:50:14.510Z,101601.87
2019-03-11T04:52:43.554Z,101594.86
2019-03-11T04:55:12.923Z,101601.66
2019-03-11T04:57:43.877Z,101601.28
2019-03-11T05:00:15.258Z,101613.81
2019-03-11T05:02:44.291Z,101602.04
2019-03-11T05:05:13.340Z,101616.30
2019-03-11T05:07:42.684Z,101604.52
2019-03-11T05:10:11.957Z,101607.80
2019-03-11T05:12:41.077Z,101605.15
2019-03-11T05:15:10.471Z,101605.25
2019-03-11T05:17:39.504Z,101606.15
2019-03-11T05:20:08.950Z,101609.31
2019-03-11T05:22:37.952Z,101614.23
2019-03-11T05:25:07.452Z,101617.73
2019-03-11T05:27:36.796Z,101618.35
2019-03-11T05:30:06.906Z,101627.88
2019-03-11T05:32:36.233Z,101644.13
2019-03-11T05:35:05.582Z,101627.58
2019-03-11T05:37:35.337Z,101634.23
2019-03-11T05:40:05.398Z,101637.92
2019-03-11T05:42:34.434Z,101641.06
2019-03-11T05:45:03.446Z,101649.27
2019-03-11T05:47:32.520Z,101661.20
2019-03-11T05:50:01.552Z,101652.72
2019-03-11T05:52:30.555Z,101657.99
2019-03-11T05:54:59.600Z,101662.27
2019-03-11T05:57:28.626Z,101664.52
2019-03-11T05:59:57.672Z,101667.41
2019-03-11T06:02:26.714Z,101670.97
2019-03-11T06:04:56.150Z,101674.22
2019-03-11T06:07:25.526Z,101684.02
2019-03-11T06:09:54.504Z,101691.09
2019-03-11T06:12:23.642Z,101704.56
2019-03-11T06:14:52.659Z,101705.76
2019-03-11T06:17:21.666Z,101706.88
2019-03-11T06:19:57.822Z,101699.27
2019-03-11T06:22:29.437Z,101700.11
2019-03-11T06:24:58.799Z,101702.23
2019-03-11T06:27:28.212Z,101702.53
2019-03-11T06:29:57.275Z,101701.67
2019-03-11T06:32:26.310Z,101702.08
2019-03-11T06:34:55.330Z,101699.87
2019-03-11T06:37:24.351Z,101690.66
2019-03-11T06:39:53.389Z,101710.17
2019-03-11T06:42:22.508Z,101714.54
2019-03-11T06:44:51.516Z,101722.19
2019-03-11T06:47:21.278Z,101761.70
2019-03-11T06:49:50.282Z,101729.16
2019-03-11T06:52:19.572Z,101741.28
2019-03-11T06:54:49.009Z,101739.42
2019-03-11T06:57:18.013Z,101736.42
2019-03-11T06:59:47.056Z,101730.62
2019-03-11T07:02:16.114Z,101730.36
2019-03-11T07:04:45.164Z,101741.71
2019-03-11T07:07:14.895Z,101747.21
2019-03-11T07:09:43.908Z,101751.52
2019-03-11T07:12:13.335Z,101755.12
2019-03-11T07:14:42.369Z,101751.99
2019-03-11T07:17:11.423Z,101756.40
2019-03-11T07:19:40.484Z,101755.70
2019-03-11T07:22:09.494Z,101761.12
2019-03-11T07:24:38.556Z,101774.81
2019-03-11T07:27:07.620Z,101778.09
2019-03-11T07:29:36.653Z,101780.96
2019-03-11T07:32:05.656Z,101783.07
2019-03-11T07:34:34.711Z,101780.13
2019-03-11T07:37:03.785Z,101792.97
2019-03-11T07:39:32.842Z,101793.00
2019-03-11T07:42:01.847Z,101798.83
2019-03-11T07:44:30.880Z,101793.73
2019-03-11T07:46:59.885Z,101802.94
2019-03-11T07:49:31.786Z,101813.56
2019-03-11T07:52:02.629Z,101808.34
2019-03-11T07:54:35.727Z,101816.73
2019-03-11T07:57:02.367Z,101818.89
2019-03-11T07:59:31.424Z,101827.36
2019-03-11T08:02:00.539Z,101835.01
2019-03-11T08:04:29.913Z,101839.55
2019-03-11T08:06:58.925Z,101839.07
2019-03-11T08:09:37.251Z,101855.66
2019-03-11T08:11:59.350Z,101845.80
2019-03-11T08:14:28.775Z,101856.44
2019-03-11T08:16:57.765Z,101856.05
2019-03-11T08:19:26.787Z,101861.38
2019-03-11T08:21:56.158Z,101866.48
2019-03-11T08:24:25.195Z,101868.50
2019-03-11T08:26:54.221Z,101879.41
2019-03-11T08:29:23.208Z,101881.00
2019-03-11T08:31:52.211Z,101893.97
2019-03-11T08:34:21.243Z,101890.87
2019-03-11T08:36:50.257Z,101906.24
2019-03-11T08:39:19.287Z,101900.44
2019-03-11T08:41:48.736Z,101915.20
2019-03-11T08:44:18.155Z,101913.52
2019-03-11T08:46:47.205Z,101917.28
2019-03-11T08:49:16.254Z,101918.63
2019-03-11T08:51:45.285Z,101910.14
2019-03-11T08:54:14.417Z,101912.66
2019-03-11T08:56:43.712Z,101919.82
2019-03-11T08:59:13.051Z,101928.27
2019-03-11T09:01:42.177Z,101926.70
2019-03-11T09:04:11.554Z,101931.20
2019-03-11T09:06:41.354Z,101931.69
2019-03-11T09:09:12.024Z,101932.64
2019-03-11T09:11:41.023Z,101933.00
2019-03-11T09:14:10.086Z,101937.78
2019-03-11T09:16:39.917Z,101942.22
2019-03-11T09:19:09.178Z,101938.04
2019-03-11T09:21:38.717Z,101949.66
2019-03-11T09:24:18.406Z,101938.88
2019-03-11T09:26:38.906Z,101953.64
2019-03-11T09:29:07.943Z,101958.91
2019-03-11T09:31:37.306Z,101953.71
2019-03-11T09:34:06.701Z,101965.06
2019-03-11T09:36:35.716Z,101972.84
2019-03-11T09:39:05.786Z,101987.84
2019-03-11T09:41:34.800Z,101986.84
2019-03-11T09:44:04.163Z,101973.98
2019-03-11T09:46:33.224Z,101989.09
2019-03-11T09:49:02.257Z,101999.42
2019-03-11T09:51:31.276Z,101995.33
2019-03-11T09:54:00.685Z,101991.30
2019-03-11T09:56:29.921Z,101995.55
2019-03-11T09:58:58.989Z,102007.88
2019-03-11T10:01:28.367Z,101998.51
2019-03-11T10:03:57.407Z,102002.45
2019-03-11T10:06:26.996Z,102006.72
2019-03-11T10:08:56.388Z,101994.05
2019-03-11T10:11:26.142Z,102006.00
2019-03-11T10:13:55.213Z,102005.08
2019-03-11T10:16:24.677Z,102014.85
2019-03-11T10:18:54.005Z,102009.96
2019-03-11T10:21:23.022Z,102020.62
2019-03-11T10:23:52.298Z,102009.67
2019-03-11T10:26:21.341Z,102010.78
2019-03-11T10:28:50.707Z,102018.55
2019-03-11T10:31:19.736Z,102016.58
2019-03-11T10:33:48.765Z,102023.95
2019-03-11T10:36:17.813Z,102038.12
2019-03-11T10:38:46.863Z,102037.45
2019-03-11T10:41:15.905Z,102040.11
2019-03-11T10:43:44.977Z,102046.28
2019-03-11T10:46:14.027Z,102041.36
2019-03-11T10:48:43.050Z,102041.63
2019-03-11T10:51:12.457Z,102041.22
2019-03-11T10:53:41.475Z,102057.98
2019-03-11T10:56:11.257Z,102054.02
2019-03-11T10:58:40.313Z,102063.80
2019-03-11T11:01:09.915Z,102066.71
2019-03-11T11:03:39.099Z,102057.30
2019-03-11T11:06:08.230Z,102072.61
2019-03-11T11:08:37.910Z,102120.38
2019-03-11T11:11:06.940Z,102075.23
2019-03-11T11:13:36.057Z,102081.44
2019-03-11T11:16:05.491Z,102093.52
2019-03-11T11:18:34.600Z,102103.09
2019-03-11T11:21:04.368Z,102111.19
2019-03-11T11:23:33.770Z,102109.53
2019-03-11T11:26:03.127Z,102125.40
2019-03-11T11:28:32.157Z,102122.35
2019-03-11T11:31:01.213Z,102126.03
2019-03-11T11:33:30.260Z,102120.43
2019-03-11T11:35:59.288Z,102130.70
2019-03-11T11:38:28.634Z,102131.10
2019-03-11T11:40:57.691Z,102128.55
2019-03-11T11:43:26.998Z,102142.53
2019-03-11T11:45:56.351Z,102151.04
2019-03-11T11:48:25.935Z,102161.06
2019-03-11T11:50:54.976Z,102162.23
2019-03-11T11:53:25.193Z,102176.91
2019-03-11T11:55:57.930Z,102178.18
2019-03-11T11:58:25.227Z,102174.95
2019-03-11T12:00:54.271Z,102178.00
2019-03-11T12:03:23.340Z,102174.30
2019-03-11T12:05:59.910Z,102182.17
2019-03-11T12:08:29.242Z,102196.52
2019-03-11T12:10:58.255Z,102196.52
2019-03-11T12:13:27.629Z,102188.63
2019-03-11T12:15:56.780Z,102197.56
2019-03-11T12:18:26.188Z,102197.73
2019-03-11T12:20:55.641Z,102192.20
2019-03-11T12:23:24.779Z,102203.77
2019-03-11T12:25:53.825Z,102220.44
2019-03-11T12:28:23.179Z,102209.98
2019-03-11T12:30:52.229Z,102206.93
2019-03-11T12:33:21.296Z,102217.20
2019-03-11T12:35:50.336Z,102217.53
2019-03-11T12:38:19.385Z,102215.97
2019-03-11T12:40:48.908Z,102226.77
2019-03-11T12:43:17.974Z,102213.13
2019-03-11T12:45:47.362Z,102222.30
2019-03-11T12:48:16.368Z,102221.35
2019-03-11T12:50:46.004Z,102219.61
2019-03-11T12:53:17.661Z,102217.96
2019-03-11T12:55:47.423Z,102227.41
2019-03-11T12:58:16.747Z,102227.63
2019-03-11T13:00:46.135Z,102239.95
2019-03-11T13:03:15.243Z,102239.30
2019-03-11T13:05:44.251Z,102237.47
2019-03-11T13:08:13.290Z,102235.59
2019-03-11T13:10:42.291Z,102247.59
2019-03-11T13:13:11.419Z,102228.25
2019-03-11T13:15:40.469Z,102238.86
2019-03-11T13:18:29.774Z,102249.32
2019-03-11T13:20:59.373Z,102254.63
2019-03-11T13:23:28.572Z,102251.22
2019-03-11T13:25:57.584Z,102252.73
2019-03-11T13:28:26.626Z,102259.16
2019-03-11T13:30:56.093Z,102261.75
2019-03-11T13:33:25.487Z,102254.17
2019-03-11T13:35:56.630Z,102271.26
2019-03-11T13:38:25.628Z,102267.44
2019-03-11T13:40:54.902Z,102278.58
2019-03-11T13:43:23.983Z,102286.96
2019-03-11T13:45:52.993Z,102280.72
2019-03-11T13:48:22.074Z,102282.42
2019-03-11T13:50:51.075Z,102292.64
2019-03-11T13:53:20.076Z,102306.32
2019-03-11T13:55:49.104Z,102287.36
2019-03-11T13:58:18.409Z,102292.78
2019-03-11T14:00:56.443Z,102294.92
2019-03-11T14:03:19.276Z,102308.65
2019-03-11T14:05:48.411Z,102318.37
2019-03-11T14:08:17.776Z,102311.63
2019-03-11T14:10:46.790Z,102327.04
2019-03-11T14:13:17.074Z,102322.42
2019-03-11T14:15:46.478Z,102336.40
2019-03-11T14:18:15.496Z,102327.04
2019-03-11T14:20:44.496Z,102330.25
2019-03-11T14:23:13.582Z,102342.80
2019-03-11T14:25:43.012Z,102334.15
2019-03-11T14:28:13.966Z,102326.36
2019-03-11T14:30:43.218Z,102353.09
2019-03-11T14:33:12.899Z,102342.14
2019-03-11T14:35:41.906Z,102343.67
2019-03-11T14:38:10.976Z,102344.53
2019-03-11T14:40:40.420Z,102347.92
2019-03-11T14:43:09.762Z,102348.73
2019-03-11T14:45:39.096Z,102347.29
2019-03-11T14:48:08.112Z,102333.09
2019-03-11T14:50:37.242Z,102362.91
2019-03-11T14:53:06.306Z,102358.26
2019-03-11T14:55:35.411Z,102363.47
2019-03-11T14:58:04.438Z,102363.47
2019-03-11T15:00:33.484Z,102360.72
2019-03-11T15:03:02.875Z,102368.91
2019-03-11T15:05:32.267Z,102365.86
2019-03-11T15:08:01.293Z,102365.30
2019-03-11T15:10:30.360Z,102365.30
2019-03-11T15:12:59.430Z,102373.55
2019-03-11T15:15:28.801Z,102369.58
2019-03-11T15:17:57.916Z,102368.87
2019-03-11T15:20:27.304Z,102374.64
2019-03-11T15:23:05.920Z,102381.91
2019-03-11T15:25:27.505Z,102370.42
2019-03-11T15:27:56.643Z,102367.58
2019-03-11T15:30:26.230Z,102362.56
2019-03-11T15:32:55.315Z,102374.61
2019-03-11T15:35:24.481Z,102369.93
2019-03-11T15:37:54.198Z,102368.92
2019-03-11T15:40:23.240Z,102360.84
2019-03-11T15:42:52.636Z,102379.45
2019-03-11T15:45:21.673Z,102378.73
2019-03-11T15:47:50.712Z,102374.77
2019-03-11T15:50:22.319Z,102392.61
2019-03-11T15:52:51.341Z,102378.38
2019-03-11T15:55:20.422Z,102382.84
2019-03-11T15:57:49.525Z,102381.00
2019-03-11T16:00:19.733Z,102384.09
2019-03-11T16:02:48.887Z,102385.00
2019-03-11T16:05:19.052Z,102421.64
2019-03-11T16:07:48.806Z,102393.62
2019-03-11T16:10:18.457Z,102392.91
2019-03-11T16:12:47.715Z,102379.59
2019-03-11T16:15:16.978Z,102387.48
2019-03-11T16:17:46.334Z,102391.53
2019-03-11T16:20:16.704Z,102391.53
2019-03-11T16:22:45.791Z,102392.94
2019-03-11T16:25:15.376Z,102383.88
2019-03-11T16:27:44.483Z,102397.52
2019-03-11T16:30:18.475Z,102404.73
2019-03-11T16:32:58.387Z,102401.50
2019-03-11T16:35:19.265Z,102403.78
2019-03-11T16:37:48.643Z,102403.26
2019-03-11T16:40:17.664Z,102406.95
2019-03-11T16:42:46.710Z,102405.32
2019-03-11T16:45:16.847Z,102421.12
2019-03-11T16:47:46.269Z,102422.26
2019-03-11T16:50:16.455Z,102416.53
2019-03-11T16:52:45.887Z,102428.68
2019-03-11T16:55:16.392Z,102427.25
2019-03-11T16:57:45.489Z,102434.84
2019-03-11T17:00:16.962Z,102438.59
2019-03-11T17:02:46.016Z,102446.30
2019-03-11T17:05:15.048Z,102446.73
2019-03-11T17:07:44.445Z,102455.28
2019-03-11T17:10:14.177Z,102451.47
2019-03-11T17:12:43.219Z,102453.40
2019-03-11T17:15:12.660Z,102454.28
2019-03-11T17:17:41.714Z,102450.26
2019-03-11T17:20:11.953Z,102450.25
2019-03-11T17:22:41.378Z,102454.34
2019-03-11T17:25:11.159Z,102450.64
2019-03-11T17:27:40.221Z,102451.00
2019-03-11T17:30:11.426Z,102447.98
2019-03-11T17:32:40.818Z,102443.74
2019-03-11T17:35:10.448Z,102440.49
2019-03-11T17:37:39.498Z,102442.42
2019-03-11T17:40:10.587Z,102450.33
2019-03-11T17:42:39.690Z,102455.78
2019-03-11T17:45:09.923Z,102451.54
2019-03-11T17:47:38.982Z,102451.43
2019-03-11T17:50:10.082Z,102448.76
2019-03-11T17:52:39.096Z,102446.78
2019-03-11T17:55:08.745Z,102445.21
2019-03-11T17:57:38.061Z,102450.67
2019-03-11T18:00:10.767Z,102455.90
2019-03-11T18:02:39.815Z,102464.02
2019-03-11T18:05:08.857Z,102468.53
2019-03-11T18:07:37.944Z,102459.28
2019-03-11T18:10:07.277Z,102458.50
2019-03-11T18:12:36.646Z,102462.30
2019-03-11T18:15:06.080Z,102457.06
2019-03-11T18:17:35.676Z,102456.38
2019-03-11T18:20:04.850Z,102464.34
2019-03-11T18:22:34.265Z,102466.21
2019-03-11T18:25:03.971Z,102468.95
2019-03-11T18:27:33.078Z,102467.67
2019-03-11T18:30:02.467Z,102472.34
2019-03-11T18:32:32.011Z,102470.92
2019-03-11T18:35:01.577Z,102469.33
2019-03-11T18:37:30.699Z,102467.95
2019-03-11T18:39:59.760Z,102469.38
2019-03-11T18:42:29.135Z,102471.28
2019-03-11T18:44:58.501Z,102467.72
2019-03-11T18:47:27.578Z,102472.09
2019-03-11T18:49:56.686Z,102471.14
2019-03-11T18:52:25.967Z,102472.27
2019-03-11T18:54:55.464Z,102468.39
2019-03-11T18:57:24.495Z,102468.41
2019-03-11T18:59:53.759Z,102468.62
2019-03-11T19:02:23.130Z,102472.67
2019-03-11T19:04:52.370Z,102473.42
2019-03-11T19:07:23.452Z,102467.69
2019-03-11T19:09:52.977Z,102466.81
2019-03-11T19:12:22.001Z,102466.61
2019-03-11T19:14:51.704Z,102458.27
2019-03-11T19:17:20.812Z,102459.59
2019-03-11T19:19:49.894Z,102452.45
2019-03-11T19:22:19.732Z,102459.70
2019-03-11T19:24:48.731Z,102455.28
2019-03-11T19:27:19.219Z,102449.41
2019-03-11T19:29:48.276Z,102457.48
2019-03-11T19:32:17.349Z,102463.99
2019-03-11T19:34:46.867Z,102463.67
2019-03-11T19:37:16.349Z,102461.63
2019-03-11T19:39:45.843Z,102465.62
2019-03-11T19:42:14.864Z,102464.97
2019-03-11T19:44:43.998Z,102467.27
2019-03-11T19:47:13.444Z,102478.34
2019-03-11T19:49:43.197Z,102462.88
2019-03-11T19:52:12.679Z,102459.47
2019-03-11T19:54:41.983Z,102460.95
2019-03-11T19:57:12.324Z,102463.37
2019-03-11T19:59:41.763Z,102459.57
2019-03-11T20:02:11.255Z,102461.30
2019-03-11T20:04:41.192Z,102472.83
2019-03-11T20:07:10.302Z,102467.80
2019-03-11T20:09:40.180Z,102469.03
2019-03-11T20:12:09.301Z,102464.31
2019-03-11T20:14:38.405Z,102470.52
2019-03-11T20:17:08.214Z,102467.06
2019-03-11T20:19:37.302Z,102456.28
2019-03-11T20:22:06.464Z,102460.43
2019-03-11T20:24:35.898Z,102455.86
2019-03-11T20:27:05.008Z,102455.08
2019-03-11T20:29:34.346Z,102456.63
2019-03-11T20:32:03.502Z,102458.89
2019-03-11T20:34:32.680Z,102453.59
2019-03-11T20:37:01.792Z,102444.44
2019-03-11T20:39:30.748Z,102444.50
2019-03-11T20:42:00.008Z,102442.91
2019-03-11T20:44:29.179Z,102441.02
2019-03-11T20:46:58.232Z,102447.28
2019-03-11T20:49:29.451Z,102440.77
2019-03-11T20:51:58.138Z,102451.33
2019-03-11T20:54:27.208Z,102454.88
2019-03-11T20:56:56.218Z,102449.16
2019-03-11T20:59:25.656Z,102448.72
2019-03-11T21:01:54.712Z,102451.73
2019-03-11T21:04:24.605Z,102444.28
2019-03-11T21:06:53.770Z,102435.09
2019-03-11T21:09:23.160Z,102431.56
2019-03-11T21:11:54.621Z,102433.14
2019-03-11T21:14:22.917Z,102439.83
2019-03-11T21:16:52.216Z,102432.74
2019-03-11T21:19:21.306Z,102420.63
2019-03-11T21:21:50.714Z,102423.67
2019-03-11T21:24:19.770Z,102424.02
2019-03-11T21:26:48.821Z,102436.25
2019-03-11T21:29:17.909Z,102436.83
2019-03-11T21:31:46.990Z,102440.88
2019-03-11T21:34:16.245Z,102436.25
2019-03-11T21:36:45.398Z,102425.70
2019-03-11T21:39:14.761Z,102423.04
2019-03-11T21:41:43.946Z,102417.67
2019-03-11T21:44:13.010Z,102422.87
2019-03-11T21:46:42.279Z,102416.58
2019-03-11T21:49:11.966Z,102417.10
2019-03-11T21:51:40.992Z,102423.77
2019-03-11T21:54:10.145Z,102418.81
2019-03-11T21:56:39.489Z,102410.81
2019-03-11T21:59:08.587Z,102413.59
2019-03-11T22:01:37.643Z,102414.53
2019-03-11T22:04:06.668Z,102412.27
2019-03-11T22:06:36.101Z,102415.92
2019-03-11T22:09:06.968Z,102414.80
2019-03-11T22:11:36.115Z,102419.30
2019-03-11T22:14:05.144Z,102419.70
2019-03-11T22:16:34.689Z,102413.50
2019-03-11T22:19:04.105Z,102408.93
2019-03-11T22:21:33.174Z,102404.19
2019-03-11T22:24:02.561Z,102396.89
2019-03-11T22:26:31.573Z,102395.80
2019-03-11T22:29:00.698Z,102401.47
2019-03-11T22:31:29.905Z,102402.21
2019-03-11T22:33:58.943Z,102402.33
2019-03-11T22:36:28.007Z,102410.48
2019-03-11T22:38:56.984Z,102402.63
2019-03-11T22:41:26.038Z,102399.16
2019-03-11T22:43:55.045Z,102392.58
2019-03-11T22:46:24.040Z,102390.74
2019-03-11T22:48:53.068Z,102382.37
2019-03-11T22:51:22.136Z,102389.80
2019-03-11T22:53:51.919Z,102379.76
2019-03-11T22:56:21.086Z,102373.11
2019-03-11T22:58:50.135Z,102376.02
2019-03-11T23:01:20.603Z,102371.83
2019-03-11T23:03:50.780Z,102372.42
2019-03-11T23:06:19.805Z,102370.05
2019-03-11T23:08:48.959Z,102364.98
2019-03-11T23:11:18.109Z,102363.10
2019-03-11T23:13:47.131Z,102358.16
2019-03-11T23:16:16.165Z,102360.75
2019-03-11T23:18:45.570Z,102355.95
2019-03-11T23:21:15.537Z,102347.84
2019-03-11T23:23:44.923Z,102357.66
2019-03-11T23:26:14.016Z,102344.71
2019-03-11T23:28:43.420Z,102339.05
2019-03-11T23:31:12.487Z,102343.84
2019-03-11T23:33:41.531Z,102344.30
2019-03-11T23:36:10.579Z,102335.91
2019-03-11T23:38:39.611Z,102335.80
2019-03-11T23:41:08.737Z,102337.34
2019-03-11T23:43:37.779Z,102339.02
2019-03-11T23:46:07.097Z,102328.71
2019-03-11T23:48:36.195Z,102329.95
2019-03-11T23:51:05.321Z,102326.80
2019-03-11T23:53:34.698Z,102323.59
2019-03-11T23:56:03.732Z,102322.86
2019-03-11T23:58:32.753Z,102325.41
